sensor_id;sensor_type;location;lat;lon;timestamp;temperature;humidity
77582;DHT22;66726;52.388;9.986;2023-07-13T00:01:16;20.60;82.90
77582;DHT22;66726;52.388;9.986;2023-07-13T00:03:45;20.60;83.10
77582;DHT22;66726;52.388;9.986;2023-07-13T00:06:13;20.50;83.50
77582;DHT22;66726;52.388;9.986;2023-07-13T00:08:41;20.40;83.60
77582;DHT22;66726;52.388;9.986;2023-07-13T00:11:09;20.50;84.60
77582;DHT22;66726;52.388;9.986;2023-07-13T00:13:38;20.50;84.40
77582;DHT22;66726;52.388;9.986;2023-07-13T00:16:08;20.50;84.30
77582;DHT22;66726;52.388;9.986;2023-07-13T00:18:38;20.50;84.50
77582;DHT22;66726;52.388;9.986;2023-07-13T00:21:07;20.40;84.60
77582;DHT22;66726;52.388;9.986;2023-07-13T00:23:36;20.20;84.90
77582;DHT22;66726;52.388;9.986;2023-07-13T00:26:08;20.20;85.70
77582;DHT22;66726;52.388;9.986;2023-07-13T00:28:38;20.20;85.70
77582;DHT22;66726;52.388;9.986;2023-07-13T00:31:10;20.10;86.20
77582;DHT22;66726;52.388;9.986;2023-07-13T00:33:41;20.10;86.10
77582;DHT22;66726;52.388;9.986;2023-07-13T00:36:10;20.00;86.80
77582;DHT22;66726;52.388;9.986;2023-07-13T00:38:39;19.80;87.30
77582;DHT22;66726;52.388;9.986;2023-07-13T00:41:08;19.70;87.80
77582;DHT22;66726;52.388;9.986;2023-07-13T00:43:37;19.70;88.00
77582;DHT22;66726;52.388;9.986;2023-07-13T00:46:28;19.70;88.70
77582;DHT22;66726;52.388;9.986;2023-07-13T00:49:00;19.70;88.90
77582;DHT22;66726;52.388;9.986;2023-07-13T00:51:36;19.70;89.20
77582;DHT22;66726;52.388;9.986;2023-07-13T00:54:11;19.60;89.10
77582;DHT22;66726;52.388;9.986;2023-07-13T00:56:44;19.70;88.90
77582;DHT22;66726;52.388;9.986;2023-07-13T00:59:15;19.80;88.60
77582;DHT22;66726;52.388;9.986;2023-07-13T01:01:47;19.90;88.50
77582;DHT22;66726;52.388;9.986;2023-07-13T01:04:16;20.00;88.00
77582;DHT22;66726;52.388;9.986;2023-07-13T01:06:46;19.90;87.70
77582;DHT22;66726;52.388;9.986;2023-07-13T01:09:15;19.90;89.20
77582;DHT22;66726;52.388;9.986;2023-07-13T01:11:44;19.90;88.10
77582;DHT22;66726;52.388;9.986;2023-07-13T01:14:13;19.90;88.20
77582;DHT22;66726;52.388;9.986;2023-07-13T01:16:42;19.80;88.40
77582;DHT22;66726;52.388;9.986;2023-07-13T01:19:25;19.80;88.40
77582;DHT22;66726;52.388;9.986;2023-07-13T01:22:09;19.80;88.80
77582;DHT22;66726;52.388;9.986;2023-07-13T01:24:41;19.70;88.60
77582;DHT22;66726;52.388;9.986;2023-07-13T01:27:16;19.70;88.90
77582;DHT22;66726;52.388;9.986;2023-07-13T01:29:45;19.60;89.10
77582;DHT22;66726;52.388;9.986;2023-07-13T01:32:18;19.60;88.90
77582;DHT22;66726;52.388;9.986;2023-07-13T01:34:51;19.60;89.10
77582;DHT22;66726;52.388;9.986;2023-07-13T01:37:23;19.60;89.10
77582;DHT22;66726;52.388;9.986;2023-07-13T01:39:52;19.70;89.00
77582;DHT22;66726;52.388;9.986;2023-07-13T01:42:21;19.60;88.50
77582;DHT22;66726;52.388;9.986;2023-07-13T01:44:49;19.50;88.40
77582;DHT22;66726;52.388;9.986;2023-07-13T01:47:17;19.50;89.30
77582;DHT22;66726;52.388;9.986;2023-07-13T01:49:45;19.50;89.00
77582;DHT22;66726;52.388;9.986;2023-07-13T01:52:14;19.50;89.20
77582;DHT22;66726;52.388;9.986;2023-07-13T01:54:43;19.50;89.70
77582;DHT22;66726;52.388;9.986;2023-07-13T01:57:11;19.50;89.00
77582;DHT22;66726;52.388;9.986;2023-07-13T01:59:39;19.30;90.00
77582;DHT22;66726;52.388;9.986;2023-07-13T02:02:08;19.30;90.20
77582;DHT22;66726;52.388;9.986;2023-07-13T02:04:36;19.20;90.40
77582;DHT22;66726;52.388;9.986;2023-07-13T02:07:05;19.20;90.70
77582;DHT22;66726;52.388;9.986;2023-07-13T02:09:33;19.20;90.80
77582;DHT22;66726;52.388;9.986;2023-07-13T02:12:03;19.10;91.20
77582;DHT22;66726;52.388;9.986;2023-07-13T02:14:32;19.20;90.80
77582;DHT22;66726;52.388;9.986;2023-07-13T02:17:00;19.00;91.00
77582;DHT22;66726;52.388;9.986;2023-07-13T02:19:28;18.90;91.30
77582;DHT22;66726;52.388;9.986;2023-07-13T02:21:56;18.90;91.40
77582;DHT22;66726;52.388;9.986;2023-07-13T02:24:25;19.00;91.20
77582;DHT22;66726;52.388;9.986;2023-07-13T02:26:54;19.00;91.30
77582;DHT22;66726;52.388;9.986;2023-07-13T02:29:23;18.90;91.30
77582;DHT22;66726;52.388;9.986;2023-07-13T02:31:51;18.80;91.60
77582;DHT22;66726;52.388;9.986;2023-07-13T02:34:19;18.70;91.80
77582;DHT22;66726;52.388;9.986;2023-07-13T02:36:48;18.70;91.90
77582;DHT22;66726;52.388;9.986;2023-07-13T02:39:16;18.70;92.00
77582;DHT22;66726;52.388;9.986;2023-07-13T02:41:44;18.70;92.00
77582;DHT22;66726;52.388;9.986;2023-07-13T02:44:12;18.70;92.10
77582;DHT22;66726;52.388;9.986;2023-07-13T02:46:43;18.60;92.10
77582;DHT22;66726;52.388;9.986;2023-07-13T02:49:11;18.50;92.30
77582;DHT22;66726;52.388;9.986;2023-07-13T02:51:39;18.50;92.60
77582;DHT22;66726;52.388;9.986;2023-07-13T02:54:08;18.30;92.70
77582;DHT22;66726;52.388;9.986;2023-07-13T02:56:38;18.40;92.70
77582;DHT22;66726;52.388;9.986;2023-07-13T02:59:07;18.50;92.50
77582;DHT22;66726;52.388;9.986;2023-07-13T03:01:35;18.50;92.50
77582;DHT22;66726;52.388;9.986;2023-07-13T03:04:04;18.40;92.50
77582;DHT22;66726;52.388;9.986;2023-07-13T03:06:33;18.50;92.20
77582;DHT22;66726;52.388;9.986;2023-07-13T03:09:02;18.40;92.40
77582;DHT22;66726;52.388;9.986;2023-07-13T03:11:30;18.40;92.50
77582;DHT22;66726;52.388;9.986;2023-07-13T03:13:59;18.40;92.50
77582;DHT22;66726;52.388;9.986;2023-07-13T03:16:27;18.40;92.60
77582;DHT22;66726;52.388;9.986;2023-07-13T03:18:55;18.40;92.40
77582;DHT22;66726;52.388;9.986;2023-07-13T03:21:25;18.30;92.60
77582;DHT22;66726;52.388;9.986;2023-07-13T03:23:53;18.30;92.50
77582;DHT22;66726;52.388;9.986;2023-07-13T03:26:21;18.20;92.70
77582;DHT22;66726;52.388;9.986;2023-07-13T03:28:49;18.20;92.70
77582;DHT22;66726;52.388;9.986;2023-07-13T03:31:20;18.30;92.60
77582;DHT22;66726;52.388;9.986;2023-07-13T03:33:50;18.30;92.70
77582;DHT22;66726;52.388;9.986;2023-07-13T03:36:20;18.30;92.60
77582;DHT22;66726;52.388;9.986;2023-07-13T03:38:54;18.20;92.60
77582;DHT22;66726;52.388;9.986;2023-07-13T03:41:25;18.30;92.80
77582;DHT22;66726;52.388;9.986;2023-07-13T03:43:53;18.30;92.40
77582;DHT22;66726;52.388;9.986;2023-07-13T03:46:21;18.30;92.50
77582;DHT22;66726;52.388;9.986;2023-07-13T03:48:49;18.30;92.10
77582;DHT22;66726;52.388;9.986;2023-07-13T03:51:18;18.20;92.50
77582;DHT22;66726;52.388;9.986;2023-07-13T03:53:47;18.10;92.60
77582;DHT22;66726;52.388;9.986;2023-07-13T03:56:18;18.10;92.60
77582;DHT22;66726;52.388;9.986;2023-07-13T03:58:48;18.10;92.70
77582;DHT22;66726;52.388;9.986;2023-07-13T04:01:19;18.20;92.70
77582;DHT22;66726;52.388;9.986;2023-07-13T04:03:49;18.20;92.80
77582;DHT22;66726;52.388;9.986;2023-07-13T04:06:19;18.10;92.60
77582;DHT22;66726;52.388;9.986;2023-07-13T04:08:53;18.10;92.80
77582;DHT22;66726;52.388;9.986;2023-07-13T04:11:25;18.10;92.70
77582;DHT22;66726;52.388;9.986;2023-07-13T04:13:55;18.00;92.80
77582;DHT22;66726;52.388;9.986;2023-07-13T04:16:24;18.10;92.60
77582;DHT22;66726;52.388;9.986;2023-07-13T04:18:53;18.10;92.60
77582;DHT22;66726;52.388;9.986;2023-07-13T04:21:26;18.00;92.50
77582;DHT22;66726;52.388;9.986;2023-07-13T04:23:55;18.00;92.80
77582;DHT22;66726;52.388;9.986;2023-07-13T04:26:25;18.00;92.90
77582;DHT22;66726;52.388;9.986;2023-07-13T04:28:53;18.00;92.80
77582;DHT22;66726;52.388;9.986;2023-07-13T04:31:22;18.00;92.60
77582;DHT22;66726;52.388;9.986;2023-07-13T04:33:50;18.10;92.90
77582;DHT22;66726;52.388;9.986;2023-07-13T04:36:19;18.20;93.00
77582;DHT22;66726;52.388;9.986;2023-07-13T04:38:48;18.20;92.70
77582;DHT22;66726;52.388;9.986;2023-07-13T04:41:16;18.10;92.30
77582;DHT22;66726;52.388;9.986;2023-07-13T04:43:46;18.20;92.40
77582;DHT22;66726;52.388;9.986;2023-07-13T04:46:16;18.20;92.30
77582;DHT22;66726;52.388;9.986;2023-07-13T04:48:46;18.20;92.60
77582;DHT22;66726;52.388;9.986;2023-07-13T04:51:17;18.20;92.30
77582;DHT22;66726;52.388;9.986;2023-07-13T04:53:45;18.20;92.50
77582;DHT22;66726;52.388;9.986;2023-07-13T04:56:13;18.10;92.40
77582;DHT22;66726;52.388;9.986;2023-07-13T04:58:42;18.20;92.50
77582;DHT22;66726;52.388;9.986;2023-07-13T05:01:11;18.20;92.40
77582;DHT22;66726;52.388;9.986;2023-07-13T05:03:40;18.20;92.50
77582;DHT22;66726;52.388;9.986;2023-07-13T05:06:09;18.10;92.50
77582;DHT22;66726;52.388;9.986;2023-07-13T05:08:37;18.10;92.60
77582;DHT22;66726;52.388;9.986;2023-07-13T05:11:06;18.20;92.80
77582;DHT22;66726;52.388;9.986;2023-07-13T05:13:35;18.20;92.70
77582;DHT22;66726;52.388;9.986;2023-07-13T05:16:04;18.30;92.40
77582;DHT22;66726;52.388;9.986;2023-07-13T05:18:36;18.30;92.20
77582;DHT22;66726;52.388;9.986;2023-07-13T05:21:10;18.20;92.20
77582;DHT22;66726;52.388;9.986;2023-07-13T05:23:40;18.30;92.30
77582;DHT22;66726;52.388;9.986;2023-07-13T05:26:09;18.20;92.30
77582;DHT22;66726;52.388;9.986;2023-07-13T05:28:38;18.30;92.50
77582;DHT22;66726;52.388;9.986;2023-07-13T05:31:07;18.30;92.00
77582;DHT22;66726;52.388;9.986;2023-07-13T05:33:39;18.40;91.80
77582;DHT22;66726;52.388;9.986;2023-07-13T05:36:08;18.40;91.60
77582;DHT22;66726;52.388;9.986;2023-07-13T05:38:36;18.40;91.60
77582;DHT22;66726;52.388;9.986;2023-07-13T05:41:04;18.40;91.50
77582;DHT22;66726;52.388;9.986;2023-07-13T05:43:32;18.50;91.40
77582;DHT22;66726;52.388;9.986;2023-07-13T05:46:01;18.50;91.10
77582;DHT22;66726;52.388;9.986;2023-07-13T05:48:29;18.50;90.70
77582;DHT22;66726;52.388;9.986;2023-07-13T05:51:01;18.40;90.80
77582;DHT22;66726;52.388;9.986;2023-07-13T05:53:29;18.40;90.80
77582;DHT22;66726;52.388;9.986;2023-07-13T05:55:57;18.50;90.90
77582;DHT22;66726;52.388;9.986;2023-07-13T05:58:28;18.50;90.90
77582;DHT22;66726;52.388;9.986;2023-07-13T06:01:01;18.50;90.50
77582;DHT22;66726;52.388;9.986;2023-07-13T06:03:31;18.50;90.80
77582;DHT22;66726;52.388;9.986;2023-07-13T06:06:01;18.50;90.50
77582;DHT22;66726;52.388;9.986;2023-07-13T06:08:29;18.40;90.80
77582;DHT22;66726;52.388;9.986;2023-07-13T06:11:03;18.50;90.70
77582;DHT22;66726;52.388;9.986;2023-07-13T06:13:32;18.50;90.70
77582;DHT22;66726;52.388;9.986;2023-07-13T06:16:01;18.60;90.90
77582;DHT22;66726;52.388;9.986;2023-07-13T06:18:32;18.50;90.60
77582;DHT22;66726;52.388;9.986;2023-07-13T06:21:06;18.50;90.80
77582;DHT22;66726;52.388;9.986;2023-07-13T06:23:36;18.50;90.60
77582;DHT22;66726;52.388;9.986;2023-07-13T06:26:05;18.50;90.70
77582;DHT22;66726;52.388;9.986;2023-07-13T06:28:34;18.60;90.90
77582;DHT22;66726;52.388;9.986;2023-07-13T06:31:05;18.60;90.60
77582;DHT22;66726;52.388;9.986;2023-07-13T06:33:35;18.70;91.00
77582;DHT22;66726;52.388;9.986;2023-07-13T06:36:06;18.70;90.40
77582;DHT22;66726;52.388;9.986;2023-07-13T06:38:35;18.70;90.10
77582;DHT22;66726;52.388;9.986;2023-07-13T06:41:05;18.80;90.10
77582;DHT22;66726;52.388;9.986;2023-07-13T06:43:34;18.90;90.10
77582;DHT22;66726;52.388;9.986;2023-07-13T06:46:02;18.90;89.50
77582;DHT22;66726;52.388;9.986;2023-07-13T06:48:30;19.10;89.90
77582;DHT22;66726;52.388;9.986;2023-07-13T06:50:59;19.10;90.10
77582;DHT22;66726;52.388;9.986;2023-07-13T06:53:28;19.40;89.70
77582;DHT22;66726;52.388;9.986;2023-07-13T06:55:56;19.30;89.10
77582;DHT22;66726;52.388;9.986;2023-07-13T06:58:24;19.20;88.50
77582;DHT22;66726;52.388;9.986;2023-07-13T07:00:53;19.30;89.70
77582;DHT22;66726;52.388;9.986;2023-07-13T07:03:21;19.40;89.80
77582;DHT22;66726;52.388;9.986;2023-07-13T07:05:49;19.40;89.10
77582;DHT22;66726;52.388;9.986;2023-07-13T07:08:17;19.40;89.10
77582;DHT22;66726;52.388;9.986;2023-07-13T07:10:47;19.40;89.10
77582;DHT22;66726;52.388;9.986;2023-07-13T07:13:20;19.40;89.30
77582;DHT22;66726;52.388;9.986;2023-07-13T07:15:50;19.30;88.80
77582;DHT22;66726;52.388;9.986;2023-07-13T07:18:19;19.30;89.50
77582;DHT22;66726;52.388;9.986;2023-07-13T07:20:48;19.40;88.00
77582;DHT22;66726;52.388;9.986;2023-07-13T07:23:17;19.30;88.40
77582;DHT22;66726;52.388;9.986;2023-07-13T07:25:47;19.40;88.10
77582;DHT22;66726;52.388;9.986;2023-07-13T07:28:16;19.30;89.30
77582;DHT22;66726;52.388;9.986;2023-07-13T07:30:49;19.50;90.40
77582;DHT22;66726;52.388;9.986;2023-07-13T07:33:41;19.50;88.00
77582;DHT22;66726;52.388;9.986;2023-07-13T07:36:09;19.40;87.30
77582;DHT22;66726;52.388;9.986;2023-07-13T07:38:41;19.50;87.10
77582;DHT22;66726;52.388;9.986;2023-07-13T07:41:11;19.50;87.80
77582;DHT22;66726;52.388;9.986;2023-07-13T07:43:42;19.60;85.60
77582;DHT22;66726;52.388;9.986;2023-07-13T07:46:10;19.70;84.80
77582;DHT22;66726;52.388;9.986;2023-07-13T07:48:40;19.70;84.30
77582;DHT22;66726;52.388;9.986;2023-07-13T07:51:08;19.60;83.90
77582;DHT22;66726;52.388;9.986;2023-07-13T07:53:36;19.70;85.50
77582;DHT22;66726;52.388;9.986;2023-07-13T07:56:04;19.80;84.00
77582;DHT22;66726;52.388;9.986;2023-07-13T07:58:54;19.90;84.30
77582;DHT22;66726;52.388;9.986;2023-07-13T08:01:25;20.00;83.70
77582;DHT22;66726;52.388;9.986;2023-07-13T08:03:56;20.10;86.00
77582;DHT22;66726;52.388;9.986;2023-07-13T08:06:27;20.10;82.90
77582;DHT22;66726;52.388;9.986;2023-07-13T08:09:11;20.10;83.30
77582;DHT22;66726;52.388;9.986;2023-07-13T08:11:39;20.10;84.40
77582;DHT22;66726;52.388;9.986;2023-07-13T08:14:11;20.20;82.50
77582;DHT22;66726;52.388;9.986;2023-07-13T08:16:40;20.10;82.00
77582;DHT22;66726;52.388;9.986;2023-07-13T08:19:08;20.20;82.30
77582;DHT22;66726;52.388;9.986;2023-07-13T08:21:37;20.20;81.40
77582;DHT22;66726;52.388;9.986;2023-07-13T08:24:07;20.30;81.70
77582;DHT22;66726;52.388;9.986;2023-07-13T08:26:35;20.30;81.60
77582;DHT22;66726;52.388;9.986;2023-07-13T08:29:03;20.30;82.40
77582;DHT22;66726;52.388;9.986;2023-07-13T08:31:33;20.50;81.80
77582;DHT22;66726;52.388;9.986;2023-07-13T08:34:01;20.50;80.80
77582;DHT22;66726;52.388;9.986;2023-07-13T08:36:30;20.50;81.10
77582;DHT22;66726;52.388;9.986;2023-07-13T08:38:58;20.40;81.20
77582;DHT22;66726;52.388;9.986;2023-07-13T08:41:26;20.50;81.10
77582;DHT22;66726;52.388;9.986;2023-07-13T08:43:57;20.50;81.50
77582;DHT22;66726;52.388;9.986;2023-07-13T08:46:33;20.50;81.20
77582;DHT22;66726;52.388;9.986;2023-07-13T08:49:10;20.50;81.60
77582;DHT22;66726;52.388;9.986;2023-07-13T08:51:44;20.60;83.40
77582;DHT22;66726;52.388;9.986;2023-07-13T08:54:22;20.60;81.30
77582;DHT22;66726;52.388;9.986;2023-07-13T08:56:59;20.60;81.50
77582;DHT22;66726;52.388;9.986;2023-07-13T08:59:33;20.60;80.70
77582;DHT22;66726;52.388;9.986;2023-07-13T09:02:17;20.50;81.60
77582;DHT22;66726;52.388;9.986;2023-07-13T09:04:56;20.50;82.00
77582;DHT22;66726;52.388;9.986;2023-07-13T09:07:41;20.50;81.70
77582;DHT22;66726;52.388;9.986;2023-07-13T09:10:27;20.60;81.40
77582;DHT22;66726;52.388;9.986;2023-07-13T09:13:08;20.70;81.50
77582;DHT22;66726;52.388;9.986;2023-07-13T09:15:49;20.70;81.10
77582;DHT22;66726;52.388;9.986;2023-07-13T09:18:26;20.70;80.90
77582;DHT22;66726;52.388;9.986;2023-07-13T09:21:00;20.50;80.70
77582;DHT22;66726;52.388;9.986;2023-07-13T09:23:32;20.40;80.90
77582;DHT22;66726;52.388;9.986;2023-07-13T09:26:04;20.50;82.00
77582;DHT22;66726;52.388;9.986;2023-07-13T09:28:39;20.60;81.50
77582;DHT22;66726;52.388;9.986;2023-07-13T09:31:13;20.80;81.10
77582;DHT22;66726;52.388;9.986;2023-07-13T09:33:48;20.90;81.80
77582;DHT22;66726;52.388;9.986;2023-07-13T09:36:23;20.80;81.20
77582;DHT22;66726;52.388;9.986;2023-07-13T09:38:59;20.90;80.80
77582;DHT22;66726;52.388;9.986;2023-07-13T09:41:37;21.10;81.50
77582;DHT22;66726;52.388;9.986;2023-07-13T09:44:10;21.30;81.70
77582;DHT22;66726;52.388;9.986;2023-07-13T09:46:47;21.40;78.40
77582;DHT22;66726;52.388;9.986;2023-07-13T09:49:25;21.50;77.50
77582;DHT22;66726;52.388;9.986;2023-07-13T09:51:59;21.50;78.50
77582;DHT22;66726;52.388;9.986;2023-07-13T09:54:33;21.60;77.20
77582;DHT22;66726;52.388;9.986;2023-07-13T09:57:03;21.70;77.80
77582;DHT22;66726;52.388;9.986;2023-07-13T09:59:43;21.80;77.60
77582;DHT22;66726;52.388;9.986;2023-07-13T10:02:27;21.90;76.90
77582;DHT22;66726;52.388;9.986;2023-07-13T10:05:02;21.60;76.50
77582;DHT22;66726;52.388;9.986;2023-07-13T10:07:32;22.00;74.80
77582;DHT22;66726;52.388;9.986;2023-07-13T10:10:14;22.10;75.00
77582;DHT22;66726;52.388;9.986;2023-07-13T10:12:44;22.10;75.10
77582;DHT22;66726;52.388;9.986;2023-07-13T10:15:15;22.00;75.20
77582;DHT22;66726;52.388;9.986;2023-07-13T10:17:51;21.90;75.20
77582;DHT22;66726;52.388;9.986;2023-07-13T10:20:24;21.90;75.40
77582;DHT22;66726;52.388;9.986;2023-07-13T10:22:58;22.10;75.20
77582;DHT22;66726;52.388;9.986;2023-07-13T10:25:32;22.10;74.40
77582;DHT22;66726;52.388;9.986;2023-07-13T10:28:23;22.00;74.70
77582;DHT22;66726;52.388;9.986;2023-07-13T10:30:56;22.10;77.00
77582;DHT22;66726;52.388;9.986;2023-07-13T10:33:28;22.40;75.60
77582;DHT22;66726;52.388;9.986;2023-07-13T10:36:05;22.50;76.80
77582;DHT22;66726;52.388;9.986;2023-07-13T10:38:47;22.50;75.50
77582;DHT22;66726;52.388;9.986;2023-07-13T10:41:19;22.50;73.20
77582;DHT22;66726;52.388;9.986;2023-07-13T10:43:51;22.40;72.60
77582;DHT22;66726;52.388;9.986;2023-07-13T10:46:26;22.40;74.00
77582;DHT22;66726;52.388;9.986;2023-07-13T10:48:58;22.50;71.90
77582;DHT22;66726;52.388;9.986;2023-07-13T10:51:32;22.70;71.70
77582;DHT22;66726;52.388;9.986;2023-07-13T10:54:15;22.70;70.90
77582;DHT22;66726;52.388;9.986;2023-07-13T10:56:49;22.80;69.20
77582;DHT22;66726;52.388;9.986;2023-07-13T10:59:24;23.00;68.80
77582;DHT22;66726;52.388;9.986;2023-07-13T11:01:57;23.00;67.70
77582;DHT22;66726;52.388;9.986;2023-07-13T11:04:29;23.10;69.20
77582;DHT22;66726;52.388;9.986;2023-07-13T11:07:20;23.10;67.40
77582;DHT22;66726;52.388;9.986;2023-07-13T11:09:51;23.30;67.40
77582;DHT22;66726;52.388;9.986;2023-07-13T11:12:50;23.40;67.20
77582;DHT22;66726;52.388;9.986;2023-07-13T11:15:31;23.50;64.70
77582;DHT22;66726;52.388;9.986;2023-07-13T11:18:21;23.50;64.60
77582;DHT22;66726;52.388;9.986;2023-07-13T11:20:52;23.50;64.80
77582;DHT22;66726;52.388;9.986;2023-07-13T11:24:02;23.40;64.70
77582;DHT22;66726;52.388;9.986;2023-07-13T11:26:39;23.60;64.70
77582;DHT22;66726;52.388;9.986;2023-07-13T11:29:14;23.80;64.20
77582;DHT22;66726;52.388;9.986;2023-07-13T11:31:54;23.60;63.70
77582;DHT22;66726;52.388;9.986;2023-07-13T11:34:27;23.50;64.00
77582;DHT22;66726;52.388;9.986;2023-07-13T11:36:59;23.40;64.40
77582;DHT22;66726;52.388;9.986;2023-07-13T11:39:31;23.40;66.20
77582;DHT22;66726;52.388;9.986;2023-07-13T11:42:05;23.40;65.40
77582;DHT22;66726;52.388;9.986;2023-07-13T11:44:43;23.40;65.20
77582;DHT22;66726;52.388;9.986;2023-07-13T11:47:33;23.20;65.90
77582;DHT22;66726;52.388;9.986;2023-07-13T11:50:02;23.50;66.90
77582;DHT22;66726;52.388;9.986;2023-07-13T11:52:35;23.70;65.50
77582;DHT22;66726;52.388;9.986;2023-07-13T11:55:14;23.60;65.00
77582;DHT22;66726;52.388;9.986;2023-07-13T11:57:47;23.70;63.80
77582;DHT22;66726;52.388;9.986;2023-07-13T12:00:22;23.90;64.80
77582;DHT22;66726;52.388;9.986;2023-07-13T12:02:55;23.90;65.30
77582;DHT22;66726;52.388;9.986;2023-07-13T12:05:27;23.90;64.30
77582;DHT22;66726;52.388;9.986;2023-07-13T12:07:58;24.10;64.10
77582;DHT22;66726;52.388;9.986;2023-07-13T12:10:29;24.10;64.50
77582;DHT22;66726;52.388;9.986;2023-07-13T12:13:01;24.10;63.20
77582;DHT22;66726;52.388;9.986;2023-07-13T12:15:37;24.00;60.80
77582;DHT22;66726;52.388;9.986;2023-07-13T12:18:13;24.20;60.30
77582;DHT22;66726;52.388;9.986;2023-07-13T12:20:46;24.40;58.80
77582;DHT22;66726;52.388;9.986;2023-07-13T12:23:22;24.50;59.10
77582;DHT22;66726;52.388;9.986;2023-07-13T12:25:54;24.40;58.40
77582;DHT22;66726;52.388;9.986;2023-07-13T12:28:31;24.30;58.70
77582;DHT22;66726;52.388;9.986;2023-07-13T12:31:03;24.70;57.20
77582;DHT22;66726;52.388;9.986;2023-07-13T12:33:33;24.80;56.60
77582;DHT22;66726;52.388;9.986;2023-07-13T12:36:06;24.80;55.20
77582;DHT22;66726;52.388;9.986;2023-07-13T12:38:34;24.80;55.60
77582;DHT22;66726;52.388;9.986;2023-07-13T12:41:04;24.50;57.00
77582;DHT22;66726;52.388;9.986;2023-07-13T12:43:36;24.30;56.90
77582;DHT22;66726;52.388;9.986;2023-07-13T12:46:16;24.20;58.00
77582;DHT22;66726;52.388;9.986;2023-07-13T12:48:49;24.10;58.30
77582;DHT22;66726;52.388;9.986;2023-07-13T12:51:34;24.00;58.30
77582;DHT22;66726;52.388;9.986;2023-07-13T12:54:15;23.90;59.10
77582;DHT22;66726;52.388;9.986;2023-07-13T12:56:50;24.00;60.50
77582;DHT22;66726;52.388;9.986;2023-07-13T12:59:22;24.10;61.20
77582;DHT22;66726;52.388;9.986;2023-07-13T13:01:53;24.40;59.80
77582;DHT22;66726;52.388;9.986;2023-07-13T13:04:22;24.70;62.10
77582;DHT22;66726;52.388;9.986;2023-07-13T13:07:01;24.90;59.80
77582;DHT22;66726;52.388;9.986;2023-07-13T13:09:31;25.10;56.70
77582;DHT22;66726;52.388;9.986;2023-07-13T13:12:00;25.20;57.20
77582;DHT22;66726;52.388;9.986;2023-07-13T13:14:28;24.90;57.70
77582;DHT22;66726;52.388;9.986;2023-07-13T13:16:56;24.60;57.00
77582;DHT22;66726;52.388;9.986;2023-07-13T13:19:27;24.50;58.30
77582;DHT22;66726;52.388;9.986;2023-07-13T13:21:56;24.40;57.70
77582;DHT22;66726;52.388;9.986;2023-07-13T13:24:27;24.20;58.60
77582;DHT22;66726;52.388;9.986;2023-07-13T13:26:56;24.20;60.80
77582;DHT22;66726;52.388;9.986;2023-07-13T13:29:26;24.10;63.80
77582;DHT22;66726;52.388;9.986;2023-07-13T13:31:55;24.00;63.90
77582;DHT22;66726;52.388;9.986;2023-07-13T13:34:24;23.70;68.00
77582;DHT22;66726;52.388;9.986;2023-07-13T13:36:54;23.60;70.80
77582;DHT22;66726;52.388;9.986;2023-07-13T13:39:31;23.30;74.80
77582;DHT22;66726;52.388;9.986;2023-07-13T13:42:02;23.30;73.90
77582;DHT22;66726;52.388;9.986;2023-07-13T13:44:32;23.10;73.80
77582;DHT22;66726;52.388;9.986;2023-07-13T13:47:01;23.10;74.80
77582;DHT22;66726;52.388;9.986;2023-07-13T13:49:30;22.90;74.40
77582;DHT22;66726;52.388;9.986;2023-07-13T13:51:58;23.00;75.30
77582;DHT22;66726;52.388;9.986;2023-07-13T13:54:27;23.20;76.00
77582;DHT22;66726;52.388;9.986;2023-07-13T13:56:55;22.80;75.30
77582;DHT22;66726;52.388;9.986;2023-07-13T13:59:26;22.90;75.90
77582;DHT22;66726;52.388;9.986;2023-07-13T14:01:56;22.90;75.70
77582;DHT22;66726;52.388;9.986;2023-07-13T14:04:26;22.90;75.30
77582;DHT22;66726;52.388;9.986;2023-07-13T14:06:54;22.70;76.20
77582;DHT22;66726;52.388;9.986;2023-07-13T14:09:23;22.30;77.70
77582;DHT22;66726;52.388;9.986;2023-07-13T14:11:51;22.00;79.10
77582;DHT22;66726;52.388;9.986;2023-07-13T14:14:22;22.10;79.70
77582;DHT22;66726;52.388;9.986;2023-07-13T14:16:56;22.10;80.70
77582;DHT22;66726;52.388;9.986;2023-07-13T14:19:24;21.90;81.30
77582;DHT22;66726;52.388;9.986;2023-07-13T14:21:53;21.80;81.50
77582;DHT22;66726;52.388;9.986;2023-07-13T14:24:21;22.00;81.70
77582;DHT22;66726;52.388;9.986;2023-07-13T14:26:49;22.20;81.90
77582;DHT22;66726;52.388;9.986;2023-07-13T14:29:19;22.50;81.60
77582;DHT22;66726;52.388;9.986;2023-07-13T14:31:50;22.50;80.30
77582;DHT22;66726;52.388;9.986;2023-07-13T14:34:21;22.50;80.40
77582;DHT22;66726;52.388;9.986;2023-07-13T14:36:51;22.60;80.80
77582;DHT22;66726;52.388;9.986;2023-07-13T14:39:21;22.40;79.80
77582;DHT22;66726;52.388;9.986;2023-07-13T14:41:52;22.60;80.60
77582;DHT22;66726;52.388;9.986;2023-07-13T14:44:25;22.60;79.60
77582;DHT22;66726;52.388;9.986;2023-07-13T14:47:01;22.70;79.90
77582;DHT22;66726;52.388;9.986;2023-07-13T14:49:35;22.70;79.60
77582;DHT22;66726;52.388;9.986;2023-07-13T14:52:11;22.70;78.60
77582;DHT22;66726;52.388;9.986;2023-07-13T14:54:41;22.40;79.80
77582;DHT22;66726;52.388;9.986;2023-07-13T14:57:11;22.40;80.50
77582;DHT22;66726;52.388;9.986;2023-07-13T14:59:40;22.30;80.90
77582;DHT22;66726;52.388;9.986;2023-07-13T15:02:16;22.10;81.90
77582;DHT22;66726;52.388;9.986;2023-07-13T15:04:47;22.20;82.90
77582;DHT22;66726;52.388;9.986;2023-07-13T15:07:15;22.30;83.00
77582;DHT22;66726;52.388;9.986;2023-07-13T15:09:45;21.80;85.40
77582;DHT22;66726;52.388;9.986;2023-07-13T15:12:14;21.70;83.30
77582;DHT22;66726;52.388;9.986;2023-07-13T15:14:42;21.70;82.40
77582;DHT22;66726;52.388;9.986;2023-07-13T15:17:25;21.50;81.80
77582;DHT22;66726;52.388;9.986;2023-07-13T15:20:00;21.30;81.50
77582;DHT22;66726;52.388;9.986;2023-07-13T15:22:29;21.30;81.30
77582;DHT22;66726;52.388;9.986;2023-07-13T15:24:57;21.40;80.60
77582;DHT22;66726;52.388;9.986;2023-07-13T15:27:30;21.40;79.30
77582;DHT22;66726;52.388;9.986;2023-07-13T15:29:58;21.20;80.20
77582;DHT22;66726;52.388;9.986;2023-07-13T15:32:30;20.70;82.40
77582;DHT22;66726;52.388;9.986;2023-07-13T15:35:02;20.90;81.70
77582;DHT22;66726;52.388;9.986;2023-07-13T15:37:30;21.00;84.40
77582;DHT22;66726;52.388;9.986;2023-07-13T15:39:58;20.80;84.70
77582;DHT22;66726;52.388;9.986;2023-07-13T15:42:26;20.70;83.50
77582;DHT22;66726;52.388;9.986;2023-07-13T15:44:54;20.90;82.60
77582;DHT22;66726;52.388;9.986;2023-07-13T15:47:25;20.80;82.00
77582;DHT22;66726;52.388;9.986;2023-07-13T15:49:53;20.70;82.60
77582;DHT22;66726;52.388;9.986;2023-07-13T15:52:23;20.80;83.10
77582;DHT22;66726;52.388;9.986;2023-07-13T15:54:52;20.50;82.40
77582;DHT22;66726;52.388;9.986;2023-07-13T15:57:21;20.50;83.40